Farm — LBHF — position and weather

sailwx.info

Track history (hours):
 
Tides and Currents Weather Stations Pressure Air Temp Water Temp Dewpoint Dewpoint Depression Visibility Wind Speed Wind Dir Waves Ship Positions

Farm

Last reported at 2015-Jan-21 23:16 UTC. Time now 2015-Jan-26 04:30 UTC.
Position N 70°25' E 023°38'.

Length 46 m.

Type: Law enforcement. MMSI: 257069200.

Date/timePositionNaut miles runAvg speedWind from/ knotsBaromVisibWave heightAir tempDewpointWater temp
2015-Jan-21 23:16N 70°25' E 023°38'3 5.4
2015-Jan-21 22:41N 70°28' E 023°41'1 6.7
2015-Jan-21 22:33N 70°29' E 023°40'6 6.0
2015-Jan-21 21:33N 70°35' E 023°36'8 8.3
2015-Jan-21 20:33N 70°43' E 023°29'2 1.8
2015-Jan-21 19:33N 70°45' E 023°31'2 1.9
2015-Jan-21 18:33N 70°46' E 023°36'1 0.5
2015-Jan-21 16:32N 70°45' E 023°36'1 1.4
2015-Jan-21 15:33N 70°43' E 023°34'2 1.5
2015-Jan-21 14:33N 70°42' E 023°33'1 1.5
2015-Jan-21 13:33N 70°40' E 023°32'2 0.4
2015-Jan-21 08:05N 70°40' E 023°39'1 1.7
2015-Jan-21 07:33N 70°39' E 023°37'0 0.2
2015-Jan-21 06:33N 70°39' E 023°36'5 4.9
2015-Jan-21 05:33N 70°34' E 023°38'10 0.9
2015-Jan-20 18:26N 70°43' E 023°52'8 0.8
2015-Jan-20 09:05N 70°48' E 023°33'3 5.3
2015-Jan-20 08:33N 70°47' E 023°25'0 0.0
2015-Jan-20 07:32N 70°47' E 023°25'2 2.3
2015-Jan-20 06:33N 70°46' E 023°29'6 6.1
2015-Jan-20 05:33N 70°39' E 023°32'6 6.1
2015-Jan-20 04:33N 70°34' E 023°38'  
Track history (hours):
 
Tides and Currents Weather Stations Pressure Air Temp Water Temp Dewpoint Dewpoint Depression Visibility Wind Speed Wind Dir Waves Ship Positions

Farm

Last reported at 2015-Jan-21 23:16 UTC. Time now 2015-Jan-26 04:30 UTC.
Position N 70°25' E 023°38'.

Length 46 m.

Type: Law enforcement. MMSI: 257069200.

Date/timePositionNaut miles runAvg speedWind from/ knotsBaromVisibWave heightAir tempDewpointWater temp
2015-Jan-21 23:16N 70°25' E 023°38'3 5.4
2015-Jan-21 22:41N 70°28' E 023°41'1 6.7
2015-Jan-21 22:33N 70°29' E 023°40'6 6.0
2015-Jan-21 21:33N 70°35' E 023°36'8 8.3
2015-Jan-21 20:33N 70°43' E 023°29'2 1.8
2015-Jan-21 19:33N 70°45' E 023°31'2 1.9
2015-Jan-21 18:33N 70°46' E 023°36'1 0.5
2015-Jan-21 16:32N 70°45' E 023°36'1 1.4
2015-Jan-21 15:33N 70°43' E 023°34'2 1.5
2015-Jan-21 14:33N 70°42' E 023°33'1 1.5
2015-Jan-21 13:33N 70°40' E 023°32'2 0.4
2015-Jan-21 08:05N 70°40' E 023°39'1 1.7
2015-Jan-21 07:33N 70°39' E 023°37'0 0.2
2015-Jan-21 06:33N 70°39' E 023°36'5 4.9
2015-Jan-21 05:33N 70°34' E 023°38'10 0.9
2015-Jan-20 18:26N 70°43' E 023°52'8 0.8
2015-Jan-20 09:05N 70°48' E 023°33'3 5.3
2015-Jan-20 08:33N 70°47' E 023°25'0 0.0
2015-Jan-20 07:32N 70°47' E 023°25'2 2.3
2015-Jan-20 06:33N 70°46' E 023°29'6 6.1
2015-Jan-20 05:33N 70°39' E 023°32'6 6.1
2015-Jan-20 04:33N 70°34' E 023°38'  

Dump ship's entire track history